sensor_id;sensor_type;location;lat;lon;timestamp;pressure;altitude;pressure_sealevel;temperature;humidity
79617;BME280;69097;52.132;5.422;2023-07-02T00:01:50;100790.44;;;16.58;83.51
79617;BME280;69097;52.132;5.422;2023-07-02T00:04:16;100793.91;;;16.53;84.92
79617;BME280;69097;52.132;5.422;2023-07-02T00:06:48;100782.25;;;16.51;84.80
79617;BME280;69097;52.132;5.422;2023-07-02T00:09:16;100774.72;;;16.48;84.51
79617;BME280;69097;52.132;5.422;2023-07-02T00:11:44;100765.13;;;16.46;84.07
79617;BME280;69097;52.132;5.422;2023-07-02T00:14:13;100778.16;;;16.43;85.23
79617;BME280;69097;52.132;5.422;2023-07-02T00:16:43;100782.72;;;16.41;84.70
79617;BME280;69097;52.132;5.422;2023-07-02T00:19:11;100789.34;;;16.38;84.91
79617;BME280;69097;52.132;5.422;2023-07-02T00:21:39;100786.69;;;16.34;84.78
79617;BME280;69097;52.132;5.422;2023-07-02T00:24:07;100806.66;;;16.31;85.59
79617;BME280;69097;52.132;5.422;2023-07-02T00:26:36;100812.00;;;16.29;85.46
79617;BME280;69097;52.132;5.422;2023-07-02T00:29:04;100815.31;;;16.27;85.51
79617;BME280;69097;52.132;5.422;2023-07-02T00:31:32;100808.41;;;16.28;85.67
79617;BME280;69097;52.132;5.422;2023-07-02T00:33:59;100808.09;;;16.26;85.46
79617;BME280;69097;52.132;5.422;2023-07-02T00:36:29;100810.59;;;16.24;86.00
79617;BME280;69097;52.132;5.422;2023-07-02T00:38:56;100812.78;;;16.20;85.15
79617;BME280;69097;52.132;5.422;2023-07-02T00:41:23;100812.03;;;16.20;85.78
79617;BME280;69097;52.132;5.422;2023-07-02T00:43:50;100807.75;;;16.15;84.93
79617;BME280;69097;52.132;5.422;2023-07-02T00:46:19;100819.88;;;16.16;84.40
79617;BME280;69097;52.132;5.422;2023-07-02T00:48:50;100815.97;;;16.13;85.03
79617;BME280;69097;52.132;5.422;2023-07-02T00:51:19;100818.94;;;16.10;84.51
79617;BME280;69097;52.132;5.422;2023-07-02T00:53:46;100819.38;;;16.08;83.77
79617;BME280;69097;52.132;5.422;2023-07-02T00:56:13;100816.75;;;16.05;85.14
79617;BME280;69097;52.132;5.422;2023-07-02T00:58:40;100819.56;;;16.05;84.27
79617;BME280;69097;52.132;5.422;2023-07-02T01:01:14;100823.03;;;15.99;83.65
79617;BME280;69097;52.132;5.422;2023-07-02T01:04:01;100828.84;;;15.96;83.38
79617;BME280;69097;52.132;5.422;2023-07-02T01:06:35;100823.00;;;15.90;83.49
79617;BME280;69097;52.132;5.422;2023-07-02T01:09:05;100830.09;;;15.86;83.30
79617;BME280;69097;52.132;5.422;2023-07-02T01:11:34;100824.88;;;15.84;83.65
79617;BME280;69097;52.132;5.422;2023-07-02T01:16:35;100834.94;;;15.76;83.74
79617;BME280;69097;52.132;5.422;2023-07-02T01:19:05;100831.34;;;15.76;84.14
79617;BME280;69097;52.132;5.422;2023-07-02T01:21:37;100826.59;;;15.73;84.31
79617;BME280;69097;52.132;5.422;2023-07-02T01:24:04;100828.47;;;15.67;83.80
79617;BME280;69097;52.132;5.422;2023-07-02T01:26:31;100827.84;;;15.63;83.66
79617;BME280;69097;52.132;5.422;2023-07-02T01:29:23;100835.69;;;15.59;83.19
79617;BME280;69097;52.132;5.422;2023-07-02T01:31:49;100834.72;;;15.53;83.56
79617;BME280;69097;52.132;5.422;2023-07-02T01:34:16;100839.75;;;15.49;83.26
79617;BME280;69097;52.132;5.422;2023-07-02T01:36:42;100837.56;;;15.44;82.99
79617;BME280;69097;52.132;5.422;2023-07-02T01:39:09;100837.00;;;15.36;83.04
79617;BME280;69097;52.132;5.422;2023-07-02T01:41:44;100836.84;;;15.31;83.30
79617;BME280;69097;52.132;5.422;2023-07-02T01:44:12;100831.03;;;15.25;83.43
79617;BME280;69097;52.132;5.422;2023-07-02T01:46:38;100833.81;;;15.16;83.90
79617;BME280;69097;52.132;5.422;2023-07-02T01:49:05;100827.63;;;15.09;84.14
79617;BME280;69097;52.132;5.422;2023-07-02T01:51:32;100830.31;;;15.03;84.20
79617;BME280;69097;52.132;5.422;2023-07-02T01:54:00;100839.84;;;14.97;84.00
79617;BME280;69097;52.132;5.422;2023-07-02T01:56:27;100831.66;;;14.90;83.53
79617;BME280;69097;52.132;5.422;2023-07-02T01:58:54;100836.16;;;14.87;83.22
79617;BME280;69097;52.132;5.422;2023-07-02T02:01:21;100832.25;;;14.85;83.33
79617;BME280;69097;52.132;5.422;2023-07-02T02:03:47;100839.13;;;14.83;82.71
79617;BME280;69097;52.132;5.422;2023-07-02T02:06:14;100840.41;;;14.82;83.14
79617;BME280;69097;52.132;5.422;2023-07-02T02:08:40;100837.38;;;14.77;82.33
79617;BME280;69097;52.132;5.422;2023-07-02T02:11:08;100842.81;;;14.71;82.50
79617;BME280;69097;52.132;5.422;2023-07-02T02:13:34;100848.44;;;14.62;82.85
79617;BME280;69097;52.132;5.422;2023-07-02T02:16:01;100844.31;;;14.54;82.97
79617;BME280;69097;52.132;5.422;2023-07-02T02:18:28;100840.50;;;14.48;82.80
79617;BME280;69097;52.132;5.422;2023-07-02T02:20:55;100843.56;;;14.41;83.02
79617;BME280;69097;52.132;5.422;2023-07-02T02:23:22;100845.44;;;14.35;83.23
79617;BME280;69097;52.132;5.422;2023-07-02T02:25:48;100833.81;;;14.33;83.15
79617;BME280;69097;52.132;5.422;2023-07-02T02:28:15;100846.69;;;14.34;83.26
79617;BME280;69097;52.132;5.422;2023-07-02T02:30:41;100851.53;;;14.34;83.39
79617;BME280;69097;52.132;5.422;2023-07-02T02:33:07;100849.16;;;14.32;82.93
79617;BME280;69097;52.132;5.422;2023-07-02T02:35:34;100849.63;;;14.31;82.92
79617;BME280;69097;52.132;5.422;2023-07-02T02:38:02;100854.16;;;14.28;82.20
79617;BME280;69097;52.132;5.422;2023-07-02T02:40:29;100858.31;;;14.24;82.36
79617;BME280;69097;52.132;5.422;2023-07-02T02:42:56;100860.94;;;14.18;82.51
79617;BME280;69097;52.132;5.422;2023-07-02T02:45:22;100862.94;;;14.18;82.21
79617;BME280;69097;52.132;5.422;2023-07-02T02:47:49;100861.84;;;14.15;82.92
79617;BME280;69097;52.132;5.422;2023-07-02T02:50:15;100870.91;;;14.10;82.03
79617;BME280;69097;52.132;5.422;2023-07-02T02:52:43;100864.59;;;14.06;81.95
79617;BME280;69097;52.132;5.422;2023-07-02T02:55:09;100859.97;;;14.00;82.26
79617;BME280;69097;52.132;5.422;2023-07-02T02:57:37;100868.22;;;13.94;82.18
79617;BME280;69097;52.132;5.422;2023-07-02T03:00:04;100870.28;;;13.94;82.44
79617;BME280;69097;52.132;5.422;2023-07-02T03:02:31;100861.94;;;13.90;82.66
79617;BME280;69097;52.132;5.422;2023-07-02T03:04:58;100864.09;;;13.86;82.63
79617;BME280;69097;52.132;5.422;2023-07-02T03:07:28;100876.84;;;13.78;82.69
79617;BME280;69097;52.132;5.422;2023-07-02T03:09:55;100872.44;;;13.77;82.81
79617;BME280;69097;52.132;5.422;2023-07-02T03:12:22;100878.22;;;13.74;82.72
79617;BME280;69097;52.132;5.422;2023-07-02T03:14:48;100881.03;;;13.74;83.15
79617;BME280;69097;52.132;5.422;2023-07-02T03:17:19;100870.09;;;13.76;83.13
79617;BME280;69097;52.132;5.422;2023-07-02T03:19:46;100880.25;;;13.73;82.62
79617;BME280;69097;52.132;5.422;2023-07-02T03:22:13;100882.72;;;13.71;83.24
79617;BME280;69097;52.132;5.422;2023-07-02T03:24:39;100888.16;;;13.66;82.84
79617;BME280;69097;52.132;5.422;2023-07-02T03:27:06;100891.31;;;13.68;82.81
79617;BME280;69097;52.132;5.422;2023-07-02T03:29:34;100888.03;;;13.69;82.98
79617;BME280;69097;52.132;5.422;2023-07-02T03:32:01;100893.66;;;13.69;82.88
79617;BME280;69097;52.132;5.422;2023-07-02T03:34:30;100887.69;;;13.67;82.96
79617;BME280;69097;52.132;5.422;2023-07-02T03:36:56;100898.66;;;13.65;82.75
79617;BME280;69097;52.132;5.422;2023-07-02T03:39:23;100893.13;;;13.62;82.77
79617;BME280;69097;52.132;5.422;2023-07-02T03:41:49;100897.16;;;13.60;83.19
79617;BME280;69097;52.132;5.422;2023-07-02T03:44:16;100892.69;;;13.63;82.80
79617;BME280;69097;52.132;5.422;2023-07-02T03:46:43;100895.50;;;13.63;82.86
79617;BME280;69097;52.132;5.422;2023-07-02T03:49:10;100900.09;;;13.57;83.17
79617;BME280;69097;52.132;5.422;2023-07-02T03:51:36;100899.34;;;13.56;83.30
79617;BME280;69097;52.132;5.422;2023-07-02T03:54:03;100900.91;;;13.57;83.54
79617;BME280;69097;52.132;5.422;2023-07-02T03:56:29;100909.25;;;13.61;83.51
79617;BME280;69097;52.132;5.422;2023-07-02T03:58:56;100915.69;;;13.62;83.41
79617;BME280;69097;52.132;5.422;2023-07-02T04:01:22;100907.22;;;13.62;83.55
79617;BME280;69097;52.132;5.422;2023-07-02T04:03:50;100906.88;;;13.59;83.17
79617;BME280;69097;52.132;5.422;2023-07-02T04:06:17;100917.00;;;13.57;82.99
79617;BME280;69097;52.132;5.422;2023-07-02T04:08:44;100911.38;;;13.57;83.23
79617;BME280;69097;52.132;5.422;2023-07-02T04:11:11;100918.16;;;13.59;83.29
79617;BME280;69097;52.132;5.422;2023-07-02T04:13:38;100913.78;;;13.58;82.89
79617;BME280;69097;52.132;5.422;2023-07-02T04:16:06;100920.97;;;13.59;82.86
79617;BME280;69097;52.132;5.422;2023-07-02T04:18:32;100916.13;;;13.60;83.07
79617;BME280;69097;52.132;5.422;2023-07-02T04:21:01;100920.19;;;13.59;82.29
79617;BME280;69097;52.132;5.422;2023-07-02T04:23:27;100923.69;;;13.63;82.69
79617;BME280;69097;52.132;5.422;2023-07-02T04:25:54;100930.53;;;13.62;82.01
79617;BME280;69097;52.132;5.422;2023-07-02T04:28:41;100930.44;;;13.66;82.32
79617;BME280;69097;52.132;5.422;2023-07-02T04:31:07;100927.16;;;13.67;82.18
79617;BME280;69097;52.132;5.422;2023-07-02T04:33:34;100926.38;;;13.67;82.14
79617;BME280;69097;52.132;5.422;2023-07-02T04:36:03;100941.59;;;13.69;82.00
79617;BME280;69097;52.132;5.422;2023-07-02T04:38:30;100935.59;;;13.67;82.21
79617;BME280;69097;52.132;5.422;2023-07-02T04:40:56;100942.84;;;13.68;82.12
79617;BME280;69097;52.132;5.422;2023-07-02T04:43:32;100940.38;;;13.70;82.63
79617;BME280;69097;52.132;5.422;2023-07-02T04:45:59;100945.56;;;13.72;82.14
79617;BME280;69097;52.132;5.422;2023-07-02T04:48:26;100946.31;;;13.72;82.53
79617;BME280;69097;52.132;5.422;2023-07-02T04:50:54;100942.63;;;13.75;82.38
79617;BME280;69097;52.132;5.422;2023-07-02T04:53:20;100944.19;;;13.76;82.79
79617;BME280;69097;52.132;5.422;2023-07-02T04:55:46;100944.53;;;13.78;82.74
79617;BME280;69097;52.132;5.422;2023-07-02T04:58:13;100945.31;;;13.79;83.10
79617;BME280;69097;52.132;5.422;2023-07-02T05:00:39;100946.88;;;13.80;82.95
79617;BME280;69097;52.132;5.422;2023-07-02T05:03:06;100951.50;;;13.86;83.29
79617;BME280;69097;52.132;5.422;2023-07-02T05:05:32;100955.56;;;13.85;82.88
79617;BME280;69097;52.132;5.422;2023-07-02T05:07:59;100954.31;;;13.86;82.84
79617;BME280;69097;52.132;5.422;2023-07-02T05:10:25;100953.09;;;13.87;82.71
79617;BME280;69097;52.132;5.422;2023-07-02T05:12:52;100955.78;;;13.91;82.66
79617;BME280;69097;52.132;5.422;2023-07-02T05:15:19;100959.72;;;13.93;82.35
79617;BME280;69097;52.132;5.422;2023-07-02T05:17:45;100961.28;;;13.94;82.61
79617;BME280;69097;52.132;5.422;2023-07-02T05:20:12;100962.78;;;13.99;82.49
79617;BME280;69097;52.132;5.422;2023-07-02T05:22:39;100964.69;;;14.02;82.21
79617;BME280;69097;52.132;5.422;2023-07-02T05:25:05;100965.03;;;14.04;82.31
79617;BME280;69097;52.132;5.422;2023-07-02T05:27:34;100964.44;;;14.09;82.16
79617;BME280;69097;52.132;5.422;2023-07-02T05:30:01;100971.53;;;14.13;82.45
79617;BME280;69097;52.132;5.422;2023-07-02T05:32:27;100964.22;;;14.16;82.34
79617;BME280;69097;52.132;5.422;2023-07-02T05:34:54;100962.84;;;14.20;81.64
79617;BME280;69097;52.132;5.422;2023-07-02T05:37:21;100970.38;;;14.23;82.21
79617;BME280;69097;52.132;5.422;2023-07-02T05:39:48;100975.16;;;14.26;82.10
79617;BME280;69097;52.132;5.422;2023-07-02T05:42:14;100980.66;;;14.30;81.58
79617;BME280;69097;52.132;5.422;2023-07-02T05:44:41;100972.09;;;14.33;81.48
79617;BME280;69097;52.132;5.422;2023-07-02T05:47:07;100979.63;;;14.36;81.98
79617;BME280;69097;52.132;5.422;2023-07-02T05:49:34;100971.03;;;14.40;81.15
79617;BME280;69097;52.132;5.422;2023-07-02T05:52:00;100978.59;;;14.43;80.38
79617;BME280;69097;52.132;5.422;2023-07-02T05:54:27;100978.47;;;14.46;80.78
79617;BME280;69097;52.132;5.422;2023-07-02T05:56:53;100975.53;;;14.50;81.36
79617;BME280;69097;52.132;5.422;2023-07-02T05:59:20;100982.31;;;14.52;79.12
79617;BME280;69097;52.132;5.422;2023-07-02T06:01:47;100984.22;;;14.55;80.45
79617;BME280;69097;52.132;5.422;2023-07-02T06:04:13;100983.63;;;14.60;80.23
79617;BME280;69097;52.132;5.422;2023-07-02T06:06:40;100986.66;;;14.66;79.75
79617;BME280;69097;52.132;5.422;2023-07-02T06:09:06;100992.50;;;14.71;79.74
79617;BME280;69097;52.132;5.422;2023-07-02T06:11:33;100991.94;;;14.76;79.49
79617;BME280;69097;52.132;5.422;2023-07-02T06:13:59;100992.44;;;14.84;79.70
79617;BME280;69097;52.132;5.422;2023-07-02T06:16:26;100993.88;;;14.89;78.75
79617;BME280;69097;52.132;5.422;2023-07-02T06:18:52;100993.63;;;14.96;78.97
79617;BME280;69097;52.132;5.422;2023-07-02T06:21:19;100997.44;;;15.02;79.15
79617;BME280;69097;52.132;5.422;2023-07-02T06:23:46;100997.63;;;15.07;77.92
79617;BME280;69097;52.132;5.422;2023-07-02T06:26:13;100996.31;;;15.21;78.29
79617;BME280;69097;52.132;5.422;2023-07-02T06:28:39;101002.34;;;15.32;76.86
79617;BME280;69097;52.132;5.422;2023-07-02T06:31:06;101004.81;;;15.42;76.57
79617;BME280;69097;52.132;5.422;2023-07-02T06:33:32;101006.09;;;15.50;76.87
79617;BME280;69097;52.132;5.422;2023-07-02T06:35:59;101007.25;;;15.62;76.81
79617;BME280;69097;52.132;5.422;2023-07-02T06:38:25;101007.16;;;15.74;76.68
79617;BME280;69097;52.132;5.422;2023-07-02T06:40:52;101006.25;;;15.77;76.16
79617;BME280;69097;52.132;5.422;2023-07-02T06:43:18;101001.97;;;15.73;73.99
79617;BME280;69097;52.132;5.422;2023-07-02T06:45:45;101013.13;;;15.67;73.54
79617;BME280;69097;52.132;5.422;2023-07-02T06:48:12;101016.84;;;15.64;74.59
79617;BME280;69097;52.132;5.422;2023-07-02T06:50:43;101021.59;;;15.67;75.55
79617;BME280;69097;52.132;5.422;2023-07-02T06:53:11;101025.19;;;15.68;73.74
79617;BME280;69097;52.132;5.422;2023-07-02T06:55:38;101032.44;;;15.69;73.53
79617;BME280;69097;52.132;5.422;2023-07-02T06:58:05;101034.38;;;15.81;72.73
79617;BME280;69097;52.132;5.422;2023-07-02T07:00:32;101025.97;;;15.99;72.14
79617;BME280;69097;52.132;5.422;2023-07-02T07:03:03;101035.63;;;16.20;70.80
79617;BME280;69097;52.132;5.422;2023-07-02T07:05:32;101031.38;;;16.24;71.46
79617;BME280;69097;52.132;5.422;2023-07-02T07:08:00;101047.16;;;16.34;71.32
79617;BME280;69097;52.132;5.422;2023-07-02T07:10:29;101055.97;;;16.36;70.43
79617;BME280;69097;52.132;5.422;2023-07-02T07:13:01;101058.53;;;16.52;69.29
79617;BME280;69097;52.132;5.422;2023-07-02T07:15:33;101051.94;;;16.55;68.79
79617;BME280;69097;52.132;5.422;2023-07-02T07:18:03;101058.25;;;16.59;68.27
79617;BME280;69097;52.132;5.422;2023-07-02T07:20:30;101060.41;;;16.55;67.35
79617;BME280;69097;52.132;5.422;2023-07-02T07:22:57;101070.50;;;16.56;69.07
79617;BME280;69097;52.132;5.422;2023-07-02T07:25:24;101070.50;;;16.56;68.27
79617;BME280;69097;52.132;5.422;2023-07-02T07:27:51;101077.16;;;16.80;69.72
79617;BME280;69097;52.132;5.422;2023-07-02T07:30:17;101069.94;;;17.06;66.66
79617;BME280;69097;52.132;5.422;2023-07-02T07:32:50;101083.16;;;17.09;65.35
79617;BME280;69097;52.132;5.422;2023-07-02T07:35:17;101070.69;;;17.16;68.39
79617;BME280;69097;52.132;5.422;2023-07-02T07:37:44;101080.31;;;17.09;65.92
79617;BME280;69097;52.132;5.422;2023-07-02T07:40:12;101086.63;;;16.95;65.57
79617;BME280;69097;52.132;5.422;2023-07-02T07:42:38;101087.41;;;17.14;65.61
79617;BME280;69097;52.132;5.422;2023-07-02T07:45:05;101072.59;;;17.37;63.92
79617;BME280;69097;52.132;5.422;2023-07-02T07:47:32;101078.72;;;17.45;63.39
79617;BME280;69097;52.132;5.422;2023-07-02T07:49:58;101082.97;;;17.58;62.61
79617;BME280;69097;52.132;5.422;2023-07-02T07:52:25;101078.88;;;17.59;61.16
79617;BME280;69097;52.132;5.422;2023-07-02T07:54:51;101090.97;;;17.78;61.25
79617;BME280;69097;52.132;5.422;2023-07-02T07:57:18;101084.69;;;17.74;60.98
79617;BME280;69097;52.132;5.422;2023-07-02T07:59:44;101087.19;;;17.72;58.94
79617;BME280;69097;52.132;5.422;2023-07-02T08:02:11;101086.00;;;17.55;58.99
79617;BME280;69097;52.132;5.422;2023-07-02T08:04:37;101096.72;;;17.33;58.25
79617;BME280;69097;52.132;5.422;2023-07-02T08:07:04;101093.88;;;17.23;60.73
79617;BME280;69097;52.132;5.422;2023-07-02T08:09:31;101090.72;;;17.49;59.23
79617;BME280;69097;52.132;5.422;2023-07-02T08:11:57;101101.38;;;17.81;58.59
79617;BME280;69097;52.132;5.422;2023-07-02T08:14:24;101101.28;;;18.08;58.15
79617;BME280;69097;52.132;5.422;2023-07-02T08:16:50;101093.03;;;18.19;57.59
79617;BME280;69097;52.132;5.422;2023-07-02T08:19:18;101094.53;;;18.38;58.49
79617;BME280;69097;52.132;5.422;2023-07-02T08:21:44;101093.59;;;18.41;59.50
79617;BME280;69097;52.132;5.422;2023-07-02T08:24:11;101102.16;;;18.32;59.64
79617;BME280;69097;52.132;5.422;2023-07-02T08:26:39;101094.97;;;18.13;57.31
79617;BME280;69097;52.132;5.422;2023-07-02T08:29:05;101104.38;;;17.86;57.12
79617;BME280;69097;52.132;5.422;2023-07-02T08:31:32;101099.03;;;17.79;57.29
79617;BME280;69097;52.132;5.422;2023-07-02T08:33:58;101103.56;;;17.86;59.05
79617;BME280;69097;52.132;5.422;2023-07-02T08:36:25;101103.03;;;18.05;58.84
79617;BME280;69097;52.132;5.422;2023-07-02T08:38:51;101106.88;;;17.93;58.44
79617;BME280;69097;52.132;5.422;2023-07-02T08:41:20;101114.66;;;17.75;56.92
79617;BME280;69097;52.132;5.422;2023-07-02T08:43:47;101109.16;;;17.53;56.98
79617;BME280;69097;52.132;5.422;2023-07-02T08:46:15;101132.31;;;17.43;58.24
79617;BME280;69097;52.132;5.422;2023-07-02T08:48:42;101127.44;;;17.52;56.72
79617;BME280;69097;52.132;5.422;2023-07-02T08:51:09;101130.38;;;17.85;56.48
79617;BME280;69097;52.132;5.422;2023-07-02T08:53:37;101128.56;;;18.14;54.19
79617;BME280;69097;52.132;5.422;2023-07-02T08:56:03;101128.31;;;18.45;52.45
79617;BME280;69097;52.132;5.422;2023-07-02T08:58:30;101111.53;;;18.80;54.84
79617;BME280;69097;52.132;5.422;2023-07-02T09:01:13;101115.84;;;19.13;53.12
79617;BME280;69097;52.132;5.422;2023-07-02T09:03:41;101115.13;;;19.27;54.48
79617;BME280;69097;52.132;5.422;2023-07-02T09:06:08;101123.72;;;19.18;54.91
79617;BME280;69097;52.132;5.422;2023-07-02T09:08:35;101109.16;;;19.02;53.30
79617;BME280;69097;52.132;5.422;2023-07-02T09:13:42;101131.91;;;19.02;53.50
79617;BME280;69097;52.132;5.422;2023-07-02T09:16:09;101124.72;;;18.92;54.84
79617;BME280;69097;52.132;5.422;2023-07-02T09:18:55;101130.81;;;18.76;55.34
79617;BME280;69097;52.132;5.422;2023-07-02T09:21:22;101123.50;;;18.60;53.69
79617;BME280;69097;52.132;5.422;2023-07-02T09:23:49;101137.53;;;18.87;53.58
79617;BME280;69097;52.132;5.422;2023-07-02T09:26:22;101135.09;;;19.18;51.25
79617;BME280;69097;52.132;5.422;2023-07-02T09:28:48;101125.69;;;19.50;51.11
79617;BME280;69097;52.132;5.422;2023-07-02T09:31:16;101118.06;;;19.71;49.02
79617;BME280;69097;52.132;5.422;2023-07-02T09:33:42;101120.88;;;19.42;48.47
79617;BME280;69097;52.132;5.422;2023-07-02T09:36:11;101119.97;;;19.12;49.74
79617;BME280;69097;52.132;5.422;2023-07-02T09:38:37;101119.25;;;19.26;52.75
79617;BME280;69097;52.132;5.422;2023-07-02T09:41:06;101126.94;;;19.35;52.29
79617;BME280;69097;52.132;5.422;2023-07-02T09:43:33;101130.13;;;19.28;53.26
79617;BME280;69097;52.132;5.422;2023-07-02T09:46:00;101127.66;;;19.21;52.70
79617;BME280;69097;52.132;5.422;2023-07-02T09:48:27;101125.97;;;19.14;53.27
79617;BME280;69097;52.132;5.422;2023-07-02T09:50:57;101120.88;;;18.95;50.56
79617;BME280;69097;52.132;5.422;2023-07-02T09:53:27;101124.56;;;19.10;51.08
79617;BME280;69097;52.132;5.422;2023-07-02T09:55:54;101129.63;;;19.53;51.04
79617;BME280;69097;52.132;5.422;2023-07-02T09:58:21;101120.91;;;19.86;46.47
79617;BME280;69097;52.132;5.422;2023-07-02T10:00:48;101117.28;;;20.00;45.06
79617;BME280;69097;52.132;5.422;2023-07-02T10:03:15;101127.72;;;20.17;46.46
79617;BME280;69097;52.132;5.422;2023-07-02T10:05:41;101131.72;;;20.25;43.06
79617;BME280;69097;52.132;5.422;2023-07-02T10:08:15;101128.97;;;20.31;43.17
79617;BME280;69097;52.132;5.422;2023-07-02T10:10:44;101126.91;;;20.17;41.97
79617;BME280;69097;52.132;5.422;2023-07-02T10:13:11;101139.13;;;20.17;43.76
79617;BME280;69097;52.132;5.422;2023-07-02T10:15:38;101129.94;;;20.42;42.83
79617;BME280;69097;52.132;5.422;2023-07-02T10:18:06;101136.44;;;20.43;44.97
79617;BME280;69097;52.132;5.422;2023-07-02T10:20:38;101135.13;;;20.44;42.97
79617;BME280;69097;52.132;5.422;2023-07-02T10:23:07;101133.88;;;20.30;40.66
79617;BME280;69097;52.132;5.422;2023-07-02T10:25:35;101146.00;;;20.60;41.62
79617;BME280;69097;52.132;5.422;2023-07-02T10:28:20;101137.97;;;20.78;40.23
79617;BME280;69097;52.132;5.422;2023-07-02T10:30:53;101138.06;;;20.84;42.39
79617;BME280;69097;52.132;5.422;2023-07-02T10:33:19;101137.69;;;21.31;43.43
79617;BME280;69097;52.132;5.422;2023-07-02T10:35:48;101149.94;;;21.17;40.36
79617;BME280;69097;52.132;5.422;2023-07-02T10:38:20;101158.66;;;21.28;40.29
79617;BME280;69097;52.132;5.422;2023-07-02T10:40:54;101158.75;;;21.59;40.12
79617;BME280;69097;52.132;5.422;2023-07-02T10:43:28;101148.03;;;21.49;40.00
79617;BME280;69097;52.132;5.422;2023-07-02T10:45:57;101156.72;;;21.00;39.36
79617;BME280;69097;52.132;5.422;2023-07-02T10:48:26;101165.22;;;20.79;45.01
79617;BME280;69097;52.132;5.422;2023-07-02T10:50:56;101160.09;;;20.83;43.92
79617;BME280;69097;52.132;5.422;2023-07-02T10:53:22;101157.22;;;20.83;46.03
79617;BME280;69097;52.132;5.422;2023-07-02T10:55:56;101169.00;;;20.71;45.24
79617;BME280;69097;52.132;5.422;2023-07-02T10:58:24;101179.53;;;20.50;46.12
79617;BME280;69097;52.132;5.422;2023-07-02T11:00:52;101178.09;;;20.26;44.42
79617;BME280;69097;52.132;5.422;2023-07-02T11:03:23;101176.09;;;20.03;46.15
79617;BME280;69097;52.132;5.422;2023-07-02T11:05:52;101175.31;;;19.88;45.62
79617;BME280;69097;52.132;5.422;2023-07-02T11:08:20;101178.94;;;19.74;46.47
79617;BME280;69097;52.132;5.422;2023-07-02T11:10:47;101176.53;;;19.57;45.62
79617;BME280;69097;52.132;5.422;2023-07-02T11:13:18;101180.38;;;19.54;45.97
79617;BME280;69097;52.132;5.422;2023-07-02T11:15:46;101175.03;;;19.47;45.06
79617;BME280;69097;52.132;5.422;2023-07-02T11:18:15;101171.13;;;19.45;44.50
79617;BME280;69097;52.132;5.422;2023-07-02T11:20:43;101177.78;;;19.42;45.08
79617;BME280;69097;52.132;5.422;2023-07-02T11:25:57;101174.03;;;20.47;44.54
79617;BME280;69097;52.132;5.422;2023-07-02T11:28:24;101179.97;;;20.29;45.46
79617;BME280;69097;52.132;5.422;2023-07-02T11:30:51;101181.09;;;20.08;44.36
79617;BME280;69097;52.132;5.422;2023-07-02T11:33:18;101184.94;;;20.05;47.09
79617;BME280;69097;52.132;5.422;2023-07-02T11:35:45;101186.75;;;20.46;44.55
79617;BME280;69097;52.132;5.422;2023-07-02T11:38:11;101183.56;;;20.58;44.15
79617;BME280;69097;52.132;5.422;2023-07-02T11:40:41;101175.09;;;20.99;41.02
79617;BME280;69097;52.132;5.422;2023-07-02T11:43:12;101172.84;;;21.23;42.51
79617;BME280;69097;52.132;5.422;2023-07-02T11:45:39;101169.06;;;21.51;41.70
79617;BME280;69097;52.132;5.422;2023-07-02T11:48:06;101171.66;;;21.75;43.18
79617;BME280;69097;52.132;5.422;2023-07-02T11:50:33;101173.38;;;21.87;42.53
79617;BME280;69097;52.132;5.422;2023-07-02T11:52:59;101175.34;;;22.01;40.06
79617;BME280;69097;52.132;5.422;2023-07-02T11:55:30;101181.53;;;21.74;40.64
79617;BME280;69097;52.132;5.422;2023-07-02T11:57:57;101180.41;;;21.66;39.78
79617;BME280;69097;52.132;5.422;2023-07-02T12:00:23;101180.97;;;21.50;41.32
79617;BME280;69097;52.132;5.422;2023-07-02T12:02:49;101186.47;;;21.13;39.89
79617;BME280;69097;52.132;5.422;2023-07-02T12:05:16;101187.03;;;20.83;41.56
79617;BME280;69097;52.132;5.422;2023-07-02T12:07:43;101190.59;;;20.77;40.48
79617;BME280;69097;52.132;5.422;2023-07-02T12:10:09;101186.34;;;20.88;40.96
79617;BME280;69097;52.132;5.422;2023-07-02T12:12:36;101202.47;;;20.91;40.68
79617;BME280;69097;52.132;5.422;2023-07-02T12:15:03;101195.19;;;20.90;40.37
79617;BME280;69097;52.132;5.422;2023-07-02T12:17:29;101196.97;;;20.87;41.33
79617;BME280;69097;52.132;5.422;2023-07-02T12:19:56;101203.47;;;20.88;40.77
79617;BME280;69097;52.132;5.422;2023-07-02T12:22:23;101197.03;;;20.93;39.38
79617;BME280;69097;52.132;5.422;2023-07-02T12:24:50;101186.31;;;21.22;40.22
79617;BME280;69097;52.132;5.422;2023-07-02T12:27:16;101196.41;;;21.38;41.44
79617;BME280;69097;52.132;5.422;2023-07-02T12:29:43;101201.19;;;21.46;39.46
79617;BME280;69097;52.132;5.422;2023-07-02T12:32:09;101207.09;;;21.43;40.19
79617;BME280;69097;52.132;5.422;2023-07-02T12:34:36;101210.09;;;21.54;40.06
79617;BME280;69097;52.132;5.422;2023-07-02T12:37:02;101200.75;;;21.33;40.70
79617;BME280;69097;52.132;5.422;2023-07-02T12:39:30;101208.00;;;21.14;42.40
79617;BME280;69097;52.132;5.422;2023-07-02T12:41:56;101197.81;;;21.48;42.06
79617;BME280;69097;52.132;5.422;2023-07-02T12:44:23;101199.88;;;21.87;40.56
79617;BME280;69097;52.132;5.422;2023-07-02T12:46:50;101185.13;;;22.20;42.08
79617;BME280;69097;52.132;5.422;2023-07-02T12:49:17;101199.38;;;22.15;39.60
79617;BME280;69097;52.132;5.422;2023-07-02T12:51:44;101200.44;;;21.91;39.03
79617;BME280;69097;52.132;5.422;2023-07-02T12:54:10;101208.72;;;21.49;39.34
79617;BME280;69097;52.132;5.422;2023-07-02T12:56:38;101199.69;;;21.51;38.47
79617;BME280;69097;52.132;5.422;2023-07-02T12:59:04;101209.03;;;21.51;40.26
79617;BME280;69097;52.132;5.422;2023-07-02T13:01:31;101210.53;;;21.47;41.67